sensor_id;sensor_type;location;lat;lon;timestamp;temperature;humidity
24772;DHT22;12870;52.274;9.754;2024-01-11T00:00:36;-6.60;99.90
24772;DHT22;12870;52.274;9.754;2024-01-11T00:03:02;-6.60;99.90
24772;DHT22;12870;52.274;9.754;2024-01-11T00:05:28;-6.60;99.90
24772;DHT22;12870;52.274;9.754;2024-01-11T00:07:54;-6.50;99.90
24772;DHT22;12870;52.274;9.754;2024-01-11T00:10:19;-6.50;99.90
24772;DHT22;12870;52.274;9.754;2024-01-11T00:12:45;-6.50;99.90
24772;DHT22;12870;52.274;9.754;2024-01-11T00:15:11;-6.50;99.90
24772;DHT22;12870;52.274;9.754;2024-01-11T00:17:36;-6.60;99.90
24772;DHT22;12870;52.274;9.754;2024-01-11T00:20:02;-6.60;99.90
24772;DHT22;12870;52.274;9.754;2024-01-11T00:22:28;-6.60;99.90
24772;DHT22;12870;52.274;9.754;2024-01-11T00:24:53;-6.70;99.90
24772;DHT22;12870;52.274;9.754;2024-01-11T00:27:19;-6.70;99.90
24772;DHT22;12870;52.274;9.754;2024-01-11T00:29:45;-6.70;99.90
24772;DHT22;12870;52.274;9.754;2024-01-11T00:32:10;-6.70;99.90
24772;DHT22;12870;52.274;9.754;2024-01-11T00:34:36;-6.70;99.90
24772;DHT22;12870;52.274;9.754;2024-01-11T00:37:02;-6.70;99.90
24772;DHT22;12870;52.274;9.754;2024-01-11T00:39:27;-6.80;99.90
24772;DHT22;12870;52.274;9.754;2024-01-11T00:41:54;-6.70;99.90
24772;DHT22;12870;52.274;9.754;2024-01-11T00:44:20;-6.80;99.90
24772;DHT22;12870;52.274;9.754;2024-01-11T00:46:45;-6.80;99.90
24772;DHT22;12870;52.274;9.754;2024-01-11T00:49:11;-6.80;99.90
24772;DHT22;12870;52.274;9.754;2024-01-11T00:51:36;-6.90;99.90
24772;DHT22;12870;52.274;9.754;2024-01-11T00:54:02;-6.90;99.90
24772;DHT22;12870;52.274;9.754;2024-01-11T00:56:27;-7.00;99.90
24772;DHT22;12870;52.274;9.754;2024-01-11T00:58:53;-6.90;99.90
24772;DHT22;12870;52.274;9.754;2024-01-11T01:01:19;-7.00;99.90
24772;DHT22;12870;52.274;9.754;2024-01-11T01:03:44;-7.00;99.90
24772;DHT22;12870;52.274;9.754;2024-01-11T01:06:10;-7.00;99.90
24772;DHT22;12870;52.274;9.754;2024-01-11T01:08:35;-7.10;99.90
24772;DHT22;12870;52.274;9.754;2024-01-11T01:11:01;-7.00;99.90
24772;DHT22;12870;52.274;9.754;2024-01-11T01:13:27;-7.00;99.90
24772;DHT22;12870;52.274;9.754;2024-01-11T01:15:52;-7.00;99.90
24772;DHT22;12870;52.274;9.754;2024-01-11T01:18:18;-7.00;99.90
24772;DHT22;12870;52.274;9.754;2024-01-11T01:20:43;-7.00;99.90
24772;DHT22;12870;52.274;9.754;2024-01-11T01:23:09;-7.00;99.90
24772;DHT22;12870;52.274;9.754;2024-01-11T01:25:34;-7.00;99.90
24772;DHT22;12870;52.274;9.754;2024-01-11T01:28:00;-7.10;99.90
24772;DHT22;12870;52.274;9.754;2024-01-11T01:30:26;-7.10;99.90
24772;DHT22;12870;52.274;9.754;2024-01-11T01:32:52;-7.10;99.90
24772;DHT22;12870;52.274;9.754;2024-01-11T01:35:18;-7.10;99.90
24772;DHT22;12870;52.274;9.754;2024-01-11T01:37:43;-7.10;99.90
24772;DHT22;12870;52.274;9.754;2024-01-11T01:40:10;-7.20;99.90
24772;DHT22;12870;52.274;9.754;2024-01-11T01:42:36;-7.20;99.90
24772;DHT22;12870;52.274;9.754;2024-01-11T01:45:06;-7.20;99.90
24772;DHT22;12870;52.274;9.754;2024-01-11T01:47:31;-7.20;99.90
24772;DHT22;12870;52.274;9.754;2024-01-11T01:49:57;-7.20;99.90
24772;DHT22;12870;52.274;9.754;2024-01-11T01:52:23;-7.20;99.90
24772;DHT22;12870;52.274;9.754;2024-01-11T01:54:49;-7.20;99.90
24772;DHT22;12870;52.274;9.754;2024-01-11T01:57:16;-7.20;99.90
24772;DHT22;12870;52.274;9.754;2024-01-11T01:59:44;-7.20;99.90
24772;DHT22;12870;52.274;9.754;2024-01-11T02:02:12;-7.20;99.90
24772;DHT22;12870;52.274;9.754;2024-01-11T02:04:37;-7.30;99.90
24772;DHT22;12870;52.274;9.754;2024-01-11T02:07:04;-7.30;99.90
24772;DHT22;12870;52.274;9.754;2024-01-11T02:09:30;-7.30;99.90
24772;DHT22;12870;52.274;9.754;2024-01-11T02:11:56;-7.30;99.90
24772;DHT22;12870;52.274;9.754;2024-01-11T02:14:21;-7.20;99.90
24772;DHT22;12870;52.274;9.754;2024-01-11T02:16:47;-7.20;99.90
24772;DHT22;12870;52.274;9.754;2024-01-11T02:19:13;-7.30;99.90
24772;DHT22;12870;52.274;9.754;2024-01-11T02:21:42;-7.30;99.90
24772;DHT22;12870;52.274;9.754;2024-01-11T02:24:09;-7.20;99.90
24772;DHT22;12870;52.274;9.754;2024-01-11T02:26:34;-7.20;99.90
24772;DHT22;12870;52.274;9.754;2024-01-11T02:29:00;-7.30;99.90
24772;DHT22;12870;52.274;9.754;2024-01-11T02:31:26;-7.30;99.90
24772;DHT22;12870;52.274;9.754;2024-01-11T02:33:52;-7.30;99.90
24772;DHT22;12870;52.274;9.754;2024-01-11T02:36:20;-7.30;99.90
24772;DHT22;12870;52.274;9.754;2024-01-11T02:38:46;-7.20;99.90
24772;DHT22;12870;52.274;9.754;2024-01-11T02:41:11;-7.20;99.90
24772;DHT22;12870;52.274;9.754;2024-01-11T02:43:39;-7.30;99.90
24772;DHT22;12870;52.274;9.754;2024-01-11T02:46:05;-7.30;99.90
24772;DHT22;12870;52.274;9.754;2024-01-11T02:48:31;-7.30;99.90
24772;DHT22;12870;52.274;9.754;2024-01-11T02:50:57;-7.30;99.90
24772;DHT22;12870;52.274;9.754;2024-01-11T02:53:23;-7.30;99.90
24772;DHT22;12870;52.274;9.754;2024-01-11T02:55:50;-7.30;99.90
24772;DHT22;12870;52.274;9.754;2024-01-11T02:58:15;-7.30;99.90
24772;DHT22;12870;52.274;9.754;2024-01-11T03:00:41;-7.30;99.90
24772;DHT22;12870;52.274;9.754;2024-01-11T03:03:07;-7.30;99.90
24772;DHT22;12870;52.274;9.754;2024-01-11T03:05:32;-7.30;99.90
24772;DHT22;12870;52.274;9.754;2024-01-11T03:07:58;-7.30;99.90
24772;DHT22;12870;52.274;9.754;2024-01-11T03:10:23;-7.20;99.90
24772;DHT22;12870;52.274;9.754;2024-01-11T03:12:49;-7.30;99.90
24772;DHT22;12870;52.274;9.754;2024-01-11T03:15:15;-7.20;99.90
24772;DHT22;12870;52.274;9.754;2024-01-11T03:17:41;-7.30;99.90
24772;DHT22;12870;52.274;9.754;2024-01-11T03:20:07;-7.30;99.90
24772;DHT22;12870;52.274;9.754;2024-01-11T03:22:33;-7.30;99.90
24772;DHT22;12870;52.274;9.754;2024-01-11T03:24:59;-7.20;99.90
24772;DHT22;12870;52.274;9.754;2024-01-11T03:27:24;-7.20;99.90
24772;DHT22;12870;52.274;9.754;2024-01-11T03:29:50;-7.20;99.90
24772;DHT22;12870;52.274;9.754;2024-01-11T03:32:15;-7.20;99.90
24772;DHT22;12870;52.274;9.754;2024-01-11T03:34:41;-7.20;99.90
24772;DHT22;12870;52.274;9.754;2024-01-11T03:37:07;-7.20;99.90
24772;DHT22;12870;52.274;9.754;2024-01-11T03:39:34;-7.20;99.90
24772;DHT22;12870;52.274;9.754;2024-01-11T03:41:59;-7.20;99.90
24772;DHT22;12870;52.274;9.754;2024-01-11T03:44:25;-7.20;99.90
24772;DHT22;12870;52.274;9.754;2024-01-11T03:46:50;-7.10;99.90
24772;DHT22;12870;52.274;9.754;2024-01-11T03:49:17;-7.10;99.90
24772;DHT22;12870;52.274;9.754;2024-01-11T03:51:42;-7.10;99.90
24772;DHT22;12870;52.274;9.754;2024-01-11T03:54:08;-7.10;99.90
24772;DHT22;12870;52.274;9.754;2024-01-11T03:56:36;-7.20;99.90
24772;DHT22;12870;52.274;9.754;2024-01-11T03:59:02;-7.10;99.90
24772;DHT22;12870;52.274;9.754;2024-01-11T04:01:27;-7.20;99.90
24772;DHT22;12870;52.274;9.754;2024-01-11T04:03:53;-7.20;99.90
24772;DHT22;12870;52.274;9.754;2024-01-11T04:06:22;-7.20;99.90
24772;DHT22;12870;52.274;9.754;2024-01-11T04:08:49;-7.20;99.90
24772;DHT22;12870;52.274;9.754;2024-01-11T04:11:15;-7.20;99.90
24772;DHT22;12870;52.274;9.754;2024-01-11T04:13:41;-7.20;99.90
24772;DHT22;12870;52.274;9.754;2024-01-11T04:16:06;-7.20;99.90
24772;DHT22;12870;52.274;9.754;2024-01-11T04:18:32;-7.30;99.90
24772;DHT22;12870;52.274;9.754;2024-01-11T04:20:58;-7.30;99.90
24772;DHT22;12870;52.274;9.754;2024-01-11T04:23:23;-7.30;99.90
24772;DHT22;12870;52.274;9.754;2024-01-11T04:25:50;-7.30;99.90
24772;DHT22;12870;52.274;9.754;2024-01-11T04:28:16;-7.40;99.90
24772;DHT22;12870;52.274;9.754;2024-01-11T04:30:42;-7.30;99.90
24772;DHT22;12870;52.274;9.754;2024-01-11T04:33:08;-7.30;99.90
24772;DHT22;12870;52.274;9.754;2024-01-11T04:35:33;-7.30;99.90
24772;DHT22;12870;52.274;9.754;2024-01-11T04:37:59;-7.30;99.90
24772;DHT22;12870;52.274;9.754;2024-01-11T04:40:24;-7.30;99.90
24772;DHT22;12870;52.274;9.754;2024-01-11T04:42:50;-7.30;99.90
24772;DHT22;12870;52.274;9.754;2024-01-11T04:45:15;-7.30;99.90
24772;DHT22;12870;52.274;9.754;2024-01-11T04:47:41;-7.30;99.90
24772;DHT22;12870;52.274;9.754;2024-01-11T04:50:07;-7.20;99.90
24772;DHT22;12870;52.274;9.754;2024-01-11T04:52:32;-7.20;99.90
24772;DHT22;12870;52.274;9.754;2024-01-11T04:54:58;-7.20;99.90
24772;DHT22;12870;52.274;9.754;2024-01-11T04:57:24;-7.20;99.90
24772;DHT22;12870;52.274;9.754;2024-01-11T04:59:49;-7.20;99.90
24772;DHT22;12870;52.274;9.754;2024-01-11T05:02:15;-7.20;99.90
24772;DHT22;12870;52.274;9.754;2024-01-11T05:04:40;-7.20;99.90
24772;DHT22;12870;52.274;9.754;2024-01-11T05:07:06;-7.20;99.90
24772;DHT22;12870;52.274;9.754;2024-01-11T05:09:31;-7.20;99.90
24772;DHT22;12870;52.274;9.754;2024-01-11T05:11:57;-7.20;99.90
24772;DHT22;12870;52.274;9.754;2024-01-11T05:14:22;-7.20;99.90
24772;DHT22;12870;52.274;9.754;2024-01-11T05:16:48;-7.20;99.90
24772;DHT22;12870;52.274;9.754;2024-01-11T05:19:13;-7.20;99.90
24772;DHT22;12870;52.274;9.754;2024-01-11T05:21:39;-7.20;99.90
24772;DHT22;12870;52.274;9.754;2024-01-11T05:24:05;-7.20;99.90
24772;DHT22;12870;52.274;9.754;2024-01-11T05:26:31;-7.20;99.90
24772;DHT22;12870;52.274;9.754;2024-01-11T05:28:56;-7.20;99.90
24772;DHT22;12870;52.274;9.754;2024-01-11T05:31:22;-7.20;99.90
24772;DHT22;12870;52.274;9.754;2024-01-11T05:33:48;-7.10;99.90
24772;DHT22;12870;52.274;9.754;2024-01-11T05:36:13;-7.10;99.90
24772;DHT22;12870;52.274;9.754;2024-01-11T05:38:39;-7.10;99.90
24772;DHT22;12870;52.274;9.754;2024-01-11T05:41:05;-7.00;99.90
24772;DHT22;12870;52.274;9.754;2024-01-11T05:43:31;-6.90;99.90
24772;DHT22;12870;52.274;9.754;2024-01-11T05:45:56;-6.80;99.90
24772;DHT22;12870;52.274;9.754;2024-01-11T05:48:22;-6.80;99.90
24772;DHT22;12870;52.274;9.754;2024-01-11T05:50:47;-6.70;99.90
24772;DHT22;12870;52.274;9.754;2024-01-11T05:53:13;-6.80;99.90
24772;DHT22;12870;52.274;9.754;2024-01-11T05:55:39;-6.80;99.90
24772;DHT22;12870;52.274;9.754;2024-01-11T05:58:05;-6.80;99.90
24772;DHT22;12870;52.274;9.754;2024-01-11T06:00:31;-6.70;99.90
24772;DHT22;12870;52.274;9.754;2024-01-11T06:02:56;-6.60;99.90
24772;DHT22;12870;52.274;9.754;2024-01-11T06:05:22;-6.60;99.90
24772;DHT22;12870;52.274;9.754;2024-01-11T06:07:50;-6.60;99.90
24772;DHT22;12870;52.274;9.754;2024-01-11T06:10:15;-6.60;99.90
24772;DHT22;12870;52.274;9.754;2024-01-11T06:12:42;-6.50;99.90
24772;DHT22;12870;52.274;9.754;2024-01-11T06:15:08;-6.50;99.90
24772;DHT22;12870;52.274;9.754;2024-01-11T06:17:35;-6.50;99.90
24772;DHT22;12870;52.274;9.754;2024-01-11T06:20:00;-6.50;99.90
24772;DHT22;12870;52.274;9.754;2024-01-11T06:22:26;-6.50;99.90
24772;DHT22;12870;52.274;9.754;2024-01-11T06:24:51;-6.50;99.90
24772;DHT22;12870;52.274;9.754;2024-01-11T06:27:17;-6.50;99.90
24772;DHT22;12870;52.274;9.754;2024-01-11T06:29:42;-6.50;99.90
24772;DHT22;12870;52.274;9.754;2024-01-11T06:32:08;-6.50;99.90
24772;DHT22;12870;52.274;9.754;2024-01-11T06:34:35;-6.50;99.90
24772;DHT22;12870;52.274;9.754;2024-01-11T06:37:01;-6.40;99.90
24772;DHT22;12870;52.274;9.754;2024-01-11T06:39:28;-6.30;99.90
24772;DHT22;12870;52.274;9.754;2024-01-11T06:41:53;-6.40;99.90
24772;DHT22;12870;52.274;9.754;2024-01-11T06:44:19;-6.40;99.90
24772;DHT22;12870;52.274;9.754;2024-01-11T06:46:44;-6.40;99.90
24772;DHT22;12870;52.274;9.754;2024-01-11T06:49:10;-6.40;99.90
24772;DHT22;12870;52.274;9.754;2024-01-11T06:51:37;-6.40;99.90
24772;DHT22;12870;52.274;9.754;2024-01-11T06:54:02;-6.40;99.90
24772;DHT22;12870;52.274;9.754;2024-01-11T06:56:28;-6.40;99.90
24772;DHT22;12870;52.274;9.754;2024-01-11T06:58:54;-6.40;99.90
24772;DHT22;12870;52.274;9.754;2024-01-11T07:01:21;-6.40;99.90
24772;DHT22;12870;52.274;9.754;2024-01-11T07:03:48;-6.40;99.90
24772;DHT22;12870;52.274;9.754;2024-01-11T07:06:14;-6.40;99.90
24772;DHT22;12870;52.274;9.754;2024-01-11T07:08:40;-6.40;99.90
24772;DHT22;12870;52.274;9.754;2024-01-11T07:11:06;-6.40;99.90
24772;DHT22;12870;52.274;9.754;2024-01-11T07:13:32;-6.40;99.90
24772;DHT22;12870;52.274;9.754;2024-01-11T07:15:59;-6.30;99.90
24772;DHT22;12870;52.274;9.754;2024-01-11T07:18:25;-6.20;99.90
24772;DHT22;12870;52.274;9.754;2024-01-11T07:20:52;-6.30;99.90
24772;DHT22;12870;52.274;9.754;2024-01-11T07:23:18;-6.20;99.90
24772;DHT22;12870;52.274;9.754;2024-01-11T07:25:43;-6.30;99.90
24772;DHT22;12870;52.274;9.754;2024-01-11T07:28:09;-6.30;99.90
24772;DHT22;12870;52.274;9.754;2024-01-11T07:30:35;-6.20;99.90
24772;DHT22;12870;52.274;9.754;2024-01-11T07:33:00;-6.20;99.90
24772;DHT22;12870;52.274;9.754;2024-01-11T07:35:26;-6.20;99.90
24772;DHT22;12870;52.274;9.754;2024-01-11T07:37:52;-6.20;99.90
24772;DHT22;12870;52.274;9.754;2024-01-11T07:40:17;-6.20;99.90
24772;DHT22;12870;52.274;9.754;2024-01-11T07:42:43;-6.20;99.90
24772;DHT22;12870;52.274;9.754;2024-01-11T07:45:09;-6.20;99.90
24772;DHT22;12870;52.274;9.754;2024-01-11T07:47:39;-6.20;99.90
24772;DHT22;12870;52.274;9.754;2024-01-11T07:50:06;-6.20;99.90
24772;DHT22;12870;52.274;9.754;2024-01-11T07:52:32;-6.20;99.90
24772;DHT22;12870;52.274;9.754;2024-01-11T07:54:58;-6.20;99.90
24772;DHT22;12870;52.274;9.754;2024-01-11T07:57:32;-6.10;99.90
24772;DHT22;12870;52.274;9.754;2024-01-11T07:59:58;-6.10;99.90
24772;DHT22;12870;52.274;9.754;2024-01-11T08:02:24;-6.10;99.90
24772;DHT22;12870;52.274;9.754;2024-01-11T08:04:50;-6.10;99.90
24772;DHT22;12870;52.274;9.754;2024-01-11T08:07:15;-6.10;99.90
24772;DHT22;12870;52.274;9.754;2024-01-11T08:09:41;-6.10;99.90
24772;DHT22;12870;52.274;9.754;2024-01-11T08:12:11;-6.10;99.90
24772;DHT22;12870;52.274;9.754;2024-01-11T08:14:36;-6.00;99.90
24772;DHT22;12870;52.274;9.754;2024-01-11T08:17:02;-5.90;99.90
24772;DHT22;12870;52.274;9.754;2024-01-11T08:19:33;-5.90;99.90
24772;DHT22;12870;52.274;9.754;2024-01-11T08:21:58;-5.80;99.90
24772;DHT22;12870;52.274;9.754;2024-01-11T08:24:24;-5.70;99.90
24772;DHT22;12870;52.274;9.754;2024-01-11T08:26:50;-5.70;99.90
24772;DHT22;12870;52.274;9.754;2024-01-11T08:29:16;-5.60;99.90
24772;DHT22;12870;52.274;9.754;2024-01-11T08:31:41;-5.60;99.90
24772;DHT22;12870;52.274;9.754;2024-01-11T08:34:09;-5.60;99.90
24772;DHT22;12870;52.274;9.754;2024-01-11T08:36:35;-5.50;99.90
24772;DHT22;12870;52.274;9.754;2024-01-11T08:39:05;-5.50;99.90
24772;DHT22;12870;52.274;9.754;2024-01-11T08:41:34;-5.60;99.90
24772;DHT22;12870;52.274;9.754;2024-01-11T08:44:01;-5.40;99.90
24772;DHT22;12870;52.274;9.754;2024-01-11T08:46:27;-5.40;99.90
24772;DHT22;12870;52.274;9.754;2024-01-11T08:48:55;-5.30;99.90
24772;DHT22;12870;52.274;9.754;2024-01-11T08:51:22;-5.20;99.90
24772;DHT22;12870;52.274;9.754;2024-01-11T08:53:47;-5.10;99.90
24772;DHT22;12870;52.274;9.754;2024-01-11T08:56:13;-5.10;99.90
24772;DHT22;12870;52.274;9.754;2024-01-11T08:58:40;-5.10;99.90
24772;DHT22;12870;52.274;9.754;2024-01-11T09:01:06;-5.10;99.90
24772;DHT22;12870;52.274;9.754;2024-01-11T09:03:34;-5.00;99.90
24772;DHT22;12870;52.274;9.754;2024-01-11T09:05:59;-4.80;99.90
24772;DHT22;12870;52.274;9.754;2024-01-11T09:08:26;-4.90;99.90
24772;DHT22;12870;52.274;9.754;2024-01-11T09:10:51;-4.80;99.90
24772;DHT22;12870;52.274;9.754;2024-01-11T09:13:18;-4.80;99.90
24772;DHT22;12870;52.274;9.754;2024-01-11T09:15:44;-4.70;99.90
24772;DHT22;12870;52.274;9.754;2024-01-11T09:18:09;-4.70;99.90
24772;DHT22;12870;52.274;9.754;2024-01-11T09:20:35;-4.70;99.90
24772;DHT22;12870;52.274;9.754;2024-01-11T09:23:00;-4.70;99.90
24772;DHT22;12870;52.274;9.754;2024-01-11T09:25:29;-4.80;99.90
24772;DHT22;12870;52.274;9.754;2024-01-11T09:27:55;-4.70;99.90
24772;DHT22;12870;52.274;9.754;2024-01-11T09:30:20;-4.60;99.90
24772;DHT22;12870;52.274;9.754;2024-01-11T09:32:46;-4.40;99.90
24772;DHT22;12870;52.274;9.754;2024-01-11T09:35:13;-4.20;99.90
24772;DHT22;12870;52.274;9.754;2024-01-11T09:37:38;-4.10;99.90
24772;DHT22;12870;52.274;9.754;2024-01-11T09:40:04;-3.90;99.90
24772;DHT22;12870;52.274;9.754;2024-01-11T09:42:33;-3.90;99.90
24772;DHT22;12870;52.274;9.754;2024-01-11T09:45:00;-3.80;99.90
24772;DHT22;12870;52.274;9.754;2024-01-11T09:47:27;-3.80;99.90
24772;DHT22;12870;52.274;9.754;2024-01-11T09:49:54;-3.70;99.90
24772;DHT22;12870;52.274;9.754;2024-01-11T09:52:20;-3.80;99.90
24772;DHT22;12870;52.274;9.754;2024-01-11T09:54:47;-3.70;99.90
24772;DHT22;12870;52.274;9.754;2024-01-11T09:57:15;-3.60;99.90
24772;DHT22;12870;52.274;9.754;2024-01-11T09:59:43;-3.70;99.90
24772;DHT22;12870;52.274;9.754;2024-01-11T10:02:10;-3.60;99.90
24772;DHT22;12870;52.274;9.754;2024-01-11T10:04:36;-3.60;99.90
24772;DHT22;12870;52.274;9.754;2024-01-11T10:07:04;-3.50;99.90
24772;DHT22;12870;52.274;9.754;2024-01-11T10:09:31;-3.40;99.90
24772;DHT22;12870;52.274;9.754;2024-01-11T10:11:57;-3.30;99.90
24772;DHT22;12870;52.274;9.754;2024-01-11T10:14:22;-3.20;99.90
24772;DHT22;12870;52.274;9.754;2024-01-11T10:16:48;-3.20;99.90
24772;DHT22;12870;52.274;9.754;2024-01-11T10:19:14;-3.20;99.90
24772;DHT22;12870;52.274;9.754;2024-01-11T10:21:41;-3.00;99.90
24772;DHT22;12870;52.274;9.754;2024-01-11T10:24:07;-3.00;99.90
24772;DHT22;12870;52.274;9.754;2024-01-11T10:26:33;-2.90;99.90
24772;DHT22;12870;52.274;9.754;2024-01-11T10:29:00;-2.80;99.90
24772;DHT22;12870;52.274;9.754;2024-01-11T10:31:28;-2.70;99.90
24772;DHT22;12870;52.274;9.754;2024-01-11T10:33:54;-2.60;99.90
24772;DHT22;12870;52.274;9.754;2024-01-11T10:36:20;-2.60;99.90
24772;DHT22;12870;52.274;9.754;2024-01-11T10:38:47;-2.50;99.90
24772;DHT22;12870;52.274;9.754;2024-01-11T10:41:13;-2.30;99.90
24772;DHT22;12870;52.274;9.754;2024-01-11T10:43:43;-2.30;99.90
24772;DHT22;12870;52.274;9.754;2024-01-11T10:46:11;-2.30;99.90
24772;DHT22;12870;52.274;9.754;2024-01-11T10:48:38;-2.40;99.90
24772;DHT22;12870;52.274;9.754;2024-01-11T10:51:07;-2.40;99.90
24772;DHT22;12870;52.274;9.754;2024-01-11T10:53:44;-2.30;99.90
24772;DHT22;12870;52.274;9.754;2024-01-11T10:56:15;-2.20;99.90
24772;DHT22;12870;52.274;9.754;2024-01-11T10:58:44;-2.10;99.90
24772;DHT22;12870;52.274;9.754;2024-01-11T11:01:11;-2.00;99.90
24772;DHT22;12870;52.274;9.754;2024-01-11T11:03:37;-2.00;99.90
24772;DHT22;12870;52.274;9.754;2024-01-11T11:06:05;-2.00;99.90
24772;DHT22;12870;52.274;9.754;2024-01-11T11:08:31;-1.90;99.90
24772;DHT22;12870;52.274;9.754;2024-01-11T11:10:58;-1.80;99.90
24772;DHT22;12870;52.274;9.754;2024-01-11T11:13:25;-1.70;99.90
24772;DHT22;12870;52.274;9.754;2024-01-11T11:15:52;-1.60;99.90
24772;DHT22;12870;52.274;9.754;2024-01-11T11:18:19;-1.50;99.90
24772;DHT22;12870;52.274;9.754;2024-01-11T11:20:45;-1.40;99.90
24772;DHT22;12870;52.274;9.754;2024-01-11T11:23:12;-1.40;99.90
24772;DHT22;12870;52.274;9.754;2024-01-11T11:25:42;-1.40;99.90
24772;DHT22;12870;52.274;9.754;2024-01-11T11:28:12;-1.30;99.90
24772;DHT22;12870;52.274;9.754;2024-01-11T11:30:39;-1.20;99.90
24772;DHT22;12870;52.274;9.754;2024-01-11T11:33:18;-1.00;99.90
24772;DHT22;12870;52.274;9.754;2024-01-11T11:35:46;-0.90;99.90
24772;DHT22;12870;52.274;9.754;2024-01-11T11:38:22;-0.70;99.90
24772;DHT22;12870;52.274;9.754;2024-01-11T11:40:48;-0.60;99.90
24772;DHT22;12870;52.274;9.754;2024-01-11T11:43:16;-0.60;99.90
24772;DHT22;12870;52.274;9.754;2024-01-11T11:45:44;-0.60;99.90
24772;DHT22;12870;52.274;9.754;2024-01-11T11:51:10;-0.60;99.90
24772;DHT22;12870;52.274;9.754;2024-01-11T11:53:37;-0.50;99.90
24772;DHT22;12870;52.274;9.754;2024-01-11T11:56:04;-0.50;99.90
24772;DHT22;12870;52.274;9.754;2024-01-11T11:58:31;-0.50;99.90
24772;DHT22;12870;52.274;9.754;2024-01-11T12:00:58;-0.50;99.90
24772;DHT22;12870;52.274;9.754;2024-01-11T12:03:34;-0.50;99.90
24772;DHT22;12870;52.274;9.754;2024-01-11T12:06:09;-0.50;99.90
24772;DHT22;12870;52.274;9.754;2024-01-11T12:08:36;-0.40;99.90
24772;DHT22;12870;52.274;9.754;2024-01-11T12:11:02;-0.40;99.90
24772;DHT22;12870;52.274;9.754;2024-01-11T12:13:29;-0.40;99.90
24772;DHT22;12870;52.274;9.754;2024-01-11T12:15:56;-0.40;99.90
24772;DHT22;12870;52.274;9.754;2024-01-11T12:18:22;-0.40;99.90
24772;DHT22;12870;52.274;9.754;2024-01-11T12:20:47;-0.30;99.90
24772;DHT22;12870;52.274;9.754;2024-01-11T12:23:13;-0.20;99.90
24772;DHT22;12870;52.274;9.754;2024-01-11T12:25:41;-0.20;99.90
24772;DHT22;12870;52.274;9.754;2024-01-11T12:28:07;0.00;99.90
24772;DHT22;12870;52.274;9.754;2024-01-11T12:30:33;0.10;99.90
24772;DHT22;12870;52.274;9.754;2024-01-11T12:32:59;0.10;99.90
24772;DHT22;12870;52.274;9.754;2024-01-11T12:35:28;0.20;99.90
24772;DHT22;12870;52.274;9.754;2024-01-11T12:38:03;0.20;99.90
24772;DHT22;12870;52.274;9.754;2024-01-11T12:40:33;0.30;99.90
24772;DHT22;12870;52.274;9.754;2024-01-11T12:43:00;0.30;99.90
24772;DHT22;12870;52.274;9.754;2024-01-11T12:45:25;0.30;99.90
24772;DHT22;12870;52.274;9.754;2024-01-11T12:47:52;0.40;99.90
24772;DHT22;12870;52.274;9.754;2024-01-11T12:50:17;0.50;99.90
24772;DHT22;12870;52.274;9.754;2024-01-11T12:52:43;0.60;99.90
24772;DHT22;12870;52.274;9.754;2024-01-11T12:55:18;0.60;99.90
24772;DHT22;12870;52.274;9.754;2024-01-11T12:57:44;0.70;99.90
24772;DHT22;12870;52.274;9.754;2024-01-11T13:00:10;0.80;99.90
24772;DHT22;12870;52.274;9.754;2024-01-11T13:02:36;0.80;99.90
24772;DHT22;12870;52.274;9.754;2024-01-11T13:05:02;0.80;99.90
24772;DHT22;12870;52.274;9.754;2024-01-11T13:07:28;0.70;99.90
24772;DHT22;12870;52.274;9.754;2024-01-11T13:09:54;0.70;99.90
24772;DHT22;12870;52.274;9.754;2024-01-11T13:12:19;0.80;99.90
24772;DHT22;12870;52.274;9.754;2024-01-11T13:14:48;0.80;99.90
24772;DHT22;12870;52.274;9.754;2024-01-11T13:17:14;0.90;99.90
24772;DHT22;12870;52.274;9.754;2024-01-11T13:19:39;0.90;99.90
24772;DHT22;12870;52.274;9.754;2024-01-11T13:22:05;0.90;99.90
24772;DHT22;12870;52.274;9.754;2024-01-11T13:24:31;1.00;99.90
24772;DHT22;12870;52.274;9.754;2024-01-11T13:26:56;0.90;99.90
24772;DHT22;12870;52.274;9.754;2024-01-11T13:29:22;0.90;99.90
24772;DHT22;12870;52.274;9.754;2024-01-11T13:31:47;1.00;99.90
24772;DHT22;12870;52.274;9.754;2024-01-11T13:34:13;1.00;99.90
24772;DHT22;12870;52.274;9.754;2024-01-11T13:36:38;1.10;99.90
24772;DHT22;12870;52.274;9.754;2024-01-11T13:39:04;1.10;99.90
24772;DHT22;12870;52.274;9.754;2024-01-11T13:41:33;1.10;99.90
24772;DHT22;12870;52.274;9.754;2024-01-11T13:43:58;1.10;99.90
24772;DHT22;12870;52.274;9.754;2024-01-11T13:46:24;1.10;99.90
24772;DHT22;12870;52.274;9.754;2024-01-11T13:48:49;1.10;99.90
24772;DHT22;12870;52.274;9.754;2024-01-11T13:51:15;1.10;99.90
24772;DHT22;12870;52.274;9.754;2024-01-11T13:53:41;1.10;99.90
24772;DHT22;12870;52.274;9.754;2024-01-11T13:56:06;1.10;99.90
24772;DHT22;12870;52.274;9.754;2024-01-11T13:58:32;1.20;99.90
24772;DHT22;12870;52.274;9.754;2024-01-11T14:00:58;1.20;99.90
24772;DHT22;12870;52.274;9.754;2024-01-11T14:03:24;1.20;99.90
24772;DHT22;12870;52.274;9.754;2024-01-11T14:05:49;1.20;99.90
24772;DHT22;12870;52.274;9.754;2024-01-11T14:08:15;1.20;99.90
24772;DHT22;12870;52.274;9.754;2024-01-11T14:10:40;1.20;99.90
24772;DHT22;12870;52.274;9.754;2024-01-11T14:13:06;1.20;99.90
24772;DHT22;12870;52.274;9.754;2024-01-11T14:15:31;1.20;99.90
24772;DHT22;12870;52.274;9.754;2024-01-11T14:17:57;1.20;99.90
24772;DHT22;12870;52.274;9.754;2024-01-11T14:20:23;1.30;99.90
24772;DHT22;12870;52.274;9.754;2024-01-11T14:22:49;1.30;99.90
24772;DHT22;12870;52.274;9.754;2024-01-11T14:25:19;1.30;99.90
24772;DHT22;12870;52.274;9.754;2024-01-11T14:27:45;1.20;99.90
24772;DHT22;12870;52.274;9.754;2024-01-11T14:30:12;1.20;99.90
24772;DHT22;12870;52.274;9.754;2024-01-11T14:32:38;1.20;99.90
24772;DHT22;12870;52.274;9.754;2024-01-11T14:35:06;1.20;99.90
24772;DHT22;12870;52.274;9.754;2024-01-11T14:37:33;1.20;99.90
24772;DHT22;12870;52.274;9.754;2024-01-11T14:39:59;1.30;99.90
24772;DHT22;12870;52.274;9.754;2024-01-11T14:42:26;1.30;99.90
24772;DHT22;12870;52.274;9.754;2024-01-11T14:44:52;1.30;99.90
24772;DHT22;12870;52.274;9.754;2024-01-11T14:47:18;1.40;99.90
24772;DHT22;12870;52.274;9.754;2024-01-11T14:49:44;1.40;99.90
24772;DHT22;12870;52.274;9.754;2024-01-11T14:52:09;1.40;99.90
24772;DHT22;12870;52.274;9.754;2024-01-11T14:54:35;1.40;99.90
24772;DHT22;12870;52.274;9.754;2024-01-11T14:57:00;1.40;99.90
24772;DHT22;12870;52.274;9.754;2024-01-11T14:59:26;1.40;99.90
24772;DHT22;12870;52.274;9.754;2024-01-11T15:01:51;1.40;99.90
24772;DHT22;12870;52.274;9.754;2024-01-11T15:04:17;1.40;99.90
24772;DHT22;12870;52.274;9.754;2024-01-11T15:06:43;1.40;99.90
24772;DHT22;12870;52.274;9.754;2024-01-11T15:09:10;1.40;99.90
24772;DHT22;12870;52.274;9.754;2024-01-11T15:11:38;1.40;99.90
24772;DHT22;12870;52.274;9.754;2024-01-11T15:14:05;1.40;99.90
24772;DHT22;12870;52.274;9.754;2024-01-11T15:16:31;1.40;99.90
24772;DHT22;12870;52.274;9.754;2024-01-11T15:18:56;1.40;99.90
24772;DHT22;12870;52.274;9.754;2024-01-11T15:21:22;1.30;99.90
24772;DHT22;12870;52.274;9.754;2024-01-11T15:23:47;1.30;99.90
24772;DHT22;12870;52.274;9.754;2024-01-11T15:26:13;1.40;99.90
24772;DHT22;12870;52.274;9.754;2024-01-11T15:28:39;1.40;99.90
24772;DHT22;12870;52.274;9.754;2024-01-11T15:31:05;1.30;99.90